Impacts TAF Board INFO
FOR SITUATIONAL AWARENESS. NOT TO BE USED FOR FLIGHT PLANNING PURPOSES.
IDs:

KDFW - Dallas-Ft Worth Intl, TX, US

Issued at 1919 UTC 29 Apr 2017
Updated at 1920 UTC 29 Apr 2017
Potential Impact None Slight Moderate High
Time1853Z 29/20Z 29/21Z 29/22Z 29/23Z 30/00Z 30/01Z 30/02Z 30/03Z 30/04Z 30/05Z 30/06Z 30/07Z 30/08Z>>
Type OBS PRVL
  [TEMP]  
PRVL PRVL PRVL PRVL PRVL PRVL PRVL PRVL PRVL PRVL PRVL PRVL
VIS 10 >6
  [3]  
>6 >6 >6 >6 >6 >6 >6 >6 >6 >6 >6 >6
CIG 90 45
  [25]  
70 70 70 70 70 70 70 70 70 70 70 80
Cover BKN BKN
  [OVC]  
BKN BKN BKN BKN BKN BKN BKN BKN BKN BKN BKN BKN
FltCat VFR VFR
  [MVFR]  
VFR VFR VFR VFR VFR VFR VFR VFR VFR VFR VFR VFR
WX -- VCTS
  [TSRA]  
-- -- -- -- -- -- -- -- -- -- -- SHRA VCTS
WDir 200 190
[300]
320 320 320 320 320 320 320 320 320 320 320 280
WSpd 21 20
  [20]  
14 14 14 14 14 14 14 14 14 14 14 15
WGst 28 32
  [32]  
-- -- -- -- -- -- -- -- -- -- -- --

Raw TAF
KDFW 291919Z 2919/3024 19020G32KT P6SM VCTS BKN045CB
  TEMPO 2920/2921 30020G32KT 3SM TSRA OVC025CB
  FM292100 32014KT P6SM BKN070
  FM300800 28015KT P6SM SHRA VCTS SCT030 BKN080CB
  FM301200 28017KT P6SM SCT030 BKN100
  FM301500 28018G28KT P6SM SCT040


Raw METAR
KDFW 291853Z 20021G28KT 10SM FEW042 SCT070 BKN090 BKN200 32/21 A2954 RMK AO2 PK WND 18031/1806 SLP992 T03220211
KDFW 291753Z 18022G27KT 10SM BKN039 OVC049 29/21 A2956 RMK AO2 PK WND 19032/1659 SLP001 T02940211 10306 20256 50008
KDFW 291653Z 20023G30KT 10SM BKN036 BKN050 31/21 A2957 RMK AO2 PK WND 18032/1630 SLP002 T03060206

METAR Board
Radar Display
Forecast Discussion

FOR SITUATIONAL AWARENESS. NOT TO BE USED FOR FLIGHT PLANNING PURPOSES.

Page loaded:  19:20 UTC  |   12:20 PM Pacific  |   01:20 PM Mountain  |   02:20 PM Central  |   03:20 PM Eastern

 

ADVISORIES

FORECASTS

FORECASTS

OBSERVATIONS

USER TOOLS

ABOUT US